createdAt,value
2019-03-06T00:00:56.265Z,3.50
2019-03-06T00:03:29.331Z,3.70
2019-03-06T00:06:00.745Z,3.03
2019-03-06T00:08:31.455Z,3.77
2019-03-06T00:11:02.799Z,1.83
2019-03-06T00:13:34.600Z,2.33
2019-03-06T00:16:05.854Z,6.80
2019-03-06T00:18:37.006Z,4.07
2019-03-06T00:21:45.711Z,2.57
2019-03-06T00:25:03.360Z,4.03
2019-03-06T00:27:34.570Z,4.37
2019-03-06T00:30:08.364Z,1.83
2019-03-06T00:32:39.896Z,2.63
2019-03-06T00:35:15.798Z,4.50
2019-03-06T00:37:46.830Z,2.80
2019-03-06T00:40:44.104Z,2.07
2019-03-06T00:43:15.802Z,4.10
2019-03-06T00:45:47.318Z,5.00
2019-03-06T00:48:19.404Z,3.40
2019-03-06T00:50:50.695Z,2.97
2019-03-06T00:53:22.602Z,2.43
2019-03-06T00:55:53.566Z,1.63
2019-03-06T00:58:25.194Z,3.87
2019-03-06T01:00:56.315Z,2.07
2019-03-06T01:03:27.663Z,3.40
2019-03-06T01:05:59.417Z,2.70
2019-03-06T01:08:31.811Z,2.43
2019-03-06T01:11:05.778Z,2.10
2019-03-06T01:13:40.326Z,5.43
2019-03-06T01:16:14.671Z,4.17
2019-03-06T01:18:46.625Z,5.70
2019-03-06T01:21:18.489Z,2.37
2019-03-06T01:23:59.418Z,3.83
2019-03-06T01:26:30.758Z,2.77
2019-03-06T01:29:01.833Z,3.87
2019-03-06T01:31:33.650Z,2.20
2019-03-06T01:34:23.513Z,3.13
2019-03-06T01:37:28.079Z,3.07
2019-03-06T01:40:23.238Z,2.80
2019-03-06T01:43:15.536Z,2.93
2019-03-06T01:45:46.694Z,2.50
2019-03-06T01:48:17.927Z,4.47
2019-03-06T01:50:49.277Z,3.97
2019-03-06T01:53:20.915Z,2.87
2019-03-06T01:55:52.010Z,7.77
2019-03-06T01:58:22.656Z,6.60
2019-03-06T02:00:54.843Z,2.27
2019-03-06T03:02:35.526Z,3.40
2019-03-06T03:05:16.292Z,3.07
2019-03-06T03:07:47.014Z,2.53
2019-03-06T03:10:18.677Z,2.67
2019-03-06T03:12:49.382Z,2.27
2019-03-06T03:15:20.992Z,4.90
2019-03-06T03:17:52.475Z,2.23
2019-03-06T03:20:22.765Z,2.70
2019-03-06T03:22:54.189Z,3.63
2019-03-06T03:25:25.229Z,2.40
2019-03-06T03:28:08.193Z,2.70
2019-03-06T03:30:39.660Z,2.70
2019-03-06T03:33:10.663Z,3.40
2019-03-06T03:35:42.614Z,4.37
2019-03-06T03:38:14.053Z,5.47
2019-03-06T03:40:45.420Z,3.53
2019-03-06T03:43:16.538Z,4.00
2019-03-06T03:45:48.532Z,3.03
2019-03-06T03:48:19.575Z,5.33
2019-03-06T03:50:52.430Z,3.37
2019-03-06T03:53:23.898Z,3.63
2019-03-06T03:55:54.233Z,3.37
2019-03-06T03:58:25.465Z,4.43
2019-03-06T04:00:57.253Z,6.07
2019-03-06T04:03:28.459Z,4.10
2019-03-06T04:06:00.164Z,4.30
2019-03-06T04:08:31.656Z,5.63
2019-03-06T04:11:04.202Z,2.30
2019-03-06T04:13:35.946Z,2.70
2019-03-06T04:16:06.583Z,5.93
2019-03-06T04:18:37.999Z,2.90
2019-03-06T04:21:09.951Z,3.80
2019-03-06T04:23:41.604Z,3.07
2019-03-06T04:26:12.994Z,3.50
2019-03-06T04:28:45.535Z,2.83
2019-03-06T04:31:16.474Z,2.83
2019-03-06T04:33:47.835Z,3.67
2019-03-06T04:36:19.868Z,4.20
2019-03-06T04:38:51.219Z,2.93
2019-03-06T04:41:22.756Z,2.87
2019-03-06T04:43:54.606Z,7.80
2019-03-06T04:46:25.304Z,2.43
2019-03-06T04:48:56.750Z,2.97
2019-03-06T04:51:27.865Z,4.77
2019-03-06T04:53:59.624Z,2.27
2019-03-06T04:56:31.454Z,2.80
2019-03-06T04:59:03.074Z,1.93
2019-03-06T05:01:34.773Z,3.10
2019-03-06T05:04:05.504Z,7.03
2019-03-06T05:06:37.240Z,2.67
2019-03-06T05:09:09.837Z,3.90
2019-03-06T05:11:41.117Z,4.80
2019-03-06T05:14:12.802Z,3.37
2019-03-06T05:16:52.563Z,4.13
2019-03-06T05:19:24.066Z,2.30
2019-03-06T05:21:55.125Z,3.80
2019-03-06T05:24:26.236Z,2.63
2019-03-06T05:26:57.490Z,3.20
2019-03-06T05:29:28.841Z,3.10
2019-03-06T05:32:28.187Z,4.10
2019-03-06T05:35:00.371Z,6.40
2019-03-06T05:37:55.309Z,2.80
2019-03-06T05:40:26.065Z,2.53
2019-03-06T05:42:57.577Z,2.93
2019-03-06T05:46:03.716Z,3.33
2019-03-06T05:48:34.446Z,3.37
2019-03-06T05:51:05.793Z,3.60
2019-03-06T05:53:37.364Z,2.20
2019-03-06T05:56:08.310Z,2.97
2019-03-06T05:58:40.103Z,4.20
2019-03-06T06:01:11.547Z,2.73
2019-03-06T06:03:42.873Z,3.13
2019-03-06T06:06:14.643Z,6.27
2019-03-06T06:08:46.374Z,3.57
2019-03-06T06:11:17.777Z,4.60
2019-03-06T06:13:48.413Z,7.47
2019-03-06T06:16:19.438Z,2.83
2019-03-06T06:18:50.574Z,5.23
2019-03-06T06:21:47.110Z,3.27
2019-03-06T06:24:28.869Z,4.73
2019-03-06T06:27:00.598Z,4.47
2019-03-06T06:29:31.919Z,4.67
2019-03-06T06:32:03.378Z,8.20
2019-03-06T06:34:34.724Z,4.83
2019-03-06T06:37:05.041Z,4.40
2019-03-06T06:39:36.462Z,4.23
2019-03-06T06:42:06.848Z,6.20
2019-03-06T06:44:38.437Z,6.03
2019-03-06T06:47:09.808Z,3.77
2019-03-06T06:49:42.976Z,3.00
2019-03-06T06:53:17.313Z,3.57
2019-03-06T06:57:00.319Z,4.10
2019-03-06T07:00:09.468Z,4.53
2019-03-06T07:04:04.167Z,5.57
2019-03-06T07:07:03.482Z,4.10
2019-03-06T07:10:05.353Z,5.07
2019-03-06T07:12:52.452Z,4.93
2019-03-06T07:15:41.967Z,8.43
2019-03-06T07:18:24.452Z,7.63
2019-03-06T07:21:16.842Z,5.93
2019-03-06T07:24:00.925Z,3.77
2019-03-06T07:26:49.408Z,4.07
2019-03-06T07:29:32.246Z,6.67
2019-03-06T07:32:20.896Z,6.33
2019-03-06T07:35:59.367Z,5.63
2019-03-06T07:38:30.003Z,5.43
2019-03-06T07:41:09.492Z,5.87
2019-03-06T07:44:29.785Z,8.67
2019-03-06T07:47:13.907Z,7.80
2019-03-06T07:50:00.395Z,4.50
2019-03-06T07:52:56.410Z,6.03
2019-03-06T07:55:33.994Z,5.13
2019-03-06T07:59:05.973Z,6.40
2019-03-06T08:01:48.950Z,4.30
2019-03-06T08:04:20.341Z,4.97
2019-03-06T08:07:36.812Z,4.83
2019-03-06T08:10:14.620Z,6.40
2019-03-06T08:12:55.930Z,5.43
2019-03-06T08:15:45.328Z,7.30
2019-03-06T08:18:29.566Z,4.70
2019-03-06T08:21:31.514Z,9.53
2019-03-06T08:24:42.487Z,6.80
2019-03-06T08:27:14.442Z,6.53
2019-03-06T08:29:46.204Z,5.13
2019-03-06T08:32:30.219Z,5.30
2019-03-06T08:35:01.205Z,4.87
2019-03-06T08:37:32.347Z,6.57
2019-03-06T08:40:03.091Z,4.53
2019-03-06T08:42:33.827Z,5.30
2019-03-06T08:45:06.117Z,5.83
2019-03-06T08:47:56.502Z,6.93
2019-03-06T08:50:42.025Z,7.87
2019-03-06T08:53:31.728Z,6.70
2019-03-06T08:56:09.596Z,5.90
2019-03-06T08:59:08.688Z,6.23
2019-03-06T09:02:04.870Z,5.13
2019-03-06T09:04:54.618Z,3.43
2019-03-06T09:07:47.230Z,5.60
2019-03-06T09:10:34.055Z,5.80
2019-03-06T09:13:24.348Z,5.03
2019-03-06T09:16:14.375Z,5.13
2019-03-06T09:18:59.106Z,8.07
2019-03-06T09:21:38.801Z,8.10
2019-03-06T09:24:27.558Z,5.90
2019-03-06T09:27:10.555Z,8.07
2019-03-06T09:30:03.637Z,4.43
2019-03-06T09:32:54.146Z,6.53
2019-03-06T09:35:53.971Z,4.43
2019-03-06T09:38:42.354Z,7.37
2019-03-06T09:41:31.643Z,5.83
2019-03-06T09:44:30.437Z,5.97
2019-03-06T09:47:35.065Z,5.53
2019-03-06T09:50:32.432Z,7.10
2019-03-06T09:53:19.618Z,5.17
2019-03-06T09:56:09.589Z,4.60
2019-03-06T09:58:56.930Z,6.07
2019-03-06T10:01:52.837Z,3.67
2019-03-06T10:05:19.066Z,3.80
2019-03-06T10:08:32.265Z,5.67
2019-03-06T10:11:43.983Z,6.27
2019-03-06T10:14:45.813Z,5.00
2019-03-06T10:18:08.002Z,6.73
2019-03-06T10:21:18.202Z,4.47
2019-03-06T10:24:21.108Z,4.70
2019-03-06T10:27:04.354Z,4.93
2019-03-06T10:30:23.225Z,6.57
2019-03-06T10:33:04.513Z,6.17
2019-03-06T10:36:05.555Z,5.97
2019-03-06T10:38:56.401Z,7.00
2019-03-06T10:41:34.765Z,4.63
2019-03-06T10:44:18.592Z,5.00
2019-03-06T10:47:14.742Z,5.97
2019-03-06T10:49:56.699Z,3.43
2019-03-06T10:52:49.509Z,4.33
2019-03-06T10:55:53.752Z,5.13
2019-03-06T10:58:57.520Z,5.13
2019-03-06T11:01:43.369Z,5.40
2019-03-06T11:05:10.174Z,4.67
2019-03-06T11:07:55.618Z,6.57
2019-03-06T11:10:56.933Z,4.33
2019-03-06T11:13:49.013Z,4.30
2019-03-06T11:16:45.510Z,4.20
2019-03-06T11:19:27.123Z,8.60
2019-03-06T11:22:01.603Z,6.27
2019-03-06T11:24:36.267Z,4.63
2019-03-06T11:27:08.452Z,4.07
2019-03-06T11:29:40.181Z,3.53
2019-03-06T11:32:17.012Z,4.43
2019-03-06T11:34:51.333Z,4.03
2019-03-06T11:40:43.204Z,4.67
2019-03-06T11:43:17.912Z,6.87
2019-03-06T11:45:51.529Z,5.37
2019-03-06T11:48:23.751Z,3.37
2019-03-06T11:50:58.607Z,5.10
2019-03-06T11:53:32.929Z,4.43
2019-03-06T11:56:06.341Z,4.73
2019-03-06T11:58:38.546Z,6.37
2019-03-06T12:01:18.394Z,4.87
2019-03-06T12:03:55.130Z,5.13
2019-03-06T12:06:31.905Z,6.20
2019-03-06T12:09:28.376Z,4.90
2019-03-06T12:12:04.484Z,5.63
2019-03-06T12:14:44.982Z,5.40
2019-03-06T12:17:24.007Z,4.93
2019-03-06T12:19:55.394Z,5.27
2019-03-06T12:22:26.858Z,4.73
2019-03-06T12:24:57.882Z,5.60
2019-03-06T12:27:29.658Z,6.70
2019-03-06T12:30:03.652Z,4.27
2019-03-06T12:32:35.198Z,4.47
2019-03-06T12:35:05.833Z,9.30
2019-03-06T12:37:47.154Z,5.87
2019-03-06T12:40:19.966Z,5.37
2019-03-06T12:42:52.215Z,4.33
2019-03-06T12:45:23.691Z,7.07
2019-03-06T12:48:16.383Z,5.27
2019-03-06T12:50:55.093Z,4.93
2019-03-06T12:53:30.830Z,5.20
2019-03-06T12:56:01.893Z,4.60
2019-03-06T12:58:36.425Z,5.67
2019-03-06T13:01:19.701Z,5.83
2019-03-06T13:03:50.971Z,5.10
2019-03-06T13:06:24.876Z,4.50
2019-03-06T13:08:56.640Z,4.33
2019-03-06T13:11:51.054Z,4.57
2019-03-06T13:14:45.934Z,5.10
2019-03-06T13:17:20.588Z,4.90
2019-03-06T13:19:54.040Z,4.67
2019-03-06T13:22:30.590Z,4.17
2019-03-06T13:25:08.954Z,4.53
2019-03-06T13:27:54.389Z,11.17
2019-03-06T13:30:30.808Z,4.77
2019-03-06T13:33:27.623Z,5.07
2019-03-06T13:36:01.688Z,6.20
2019-03-06T13:38:34.657Z,4.23
2019-03-06T13:41:05.462Z,6.60
2019-03-06T13:43:44.609Z,4.87
2019-03-06T13:46:15.490Z,4.83
2019-03-06T13:48:47.365Z,5.13
2019-03-06T13:51:18.518Z,6.53
2019-03-06T13:53:52.015Z,5.03
2019-03-06T13:56:40.586Z,6.47
2019-03-06T13:59:12.788Z,17.40
2019-03-06T14:01:44.941Z,20.40
2019-03-06T14:04:15.870Z,12.37
2019-03-06T14:06:46.411Z,10.97
2019-03-06T14:09:17.802Z,7.43
2019-03-06T14:11:58.503Z,5.37
2019-03-06T14:14:38.749Z,5.60
2019-03-06T14:17:13.310Z,6.87
2019-03-06T14:19:44.433Z,5.87
2019-03-06T14:22:15.127Z,5.83
2019-03-06T14:24:46.759Z,6.20
2019-03-06T14:27:18.692Z,6.40
2019-03-06T14:29:58.107Z,13.47
2019-03-06T14:32:30.234Z,6.80
2019-03-06T14:35:01.306Z,5.23
2019-03-06T14:37:34.267Z,10.83
2019-03-06T14:40:09.740Z,7.03
2019-03-06T14:42:39.097Z,6.43
2019-03-06T14:45:12.332Z,7.97
2019-03-06T14:47:43.176Z,13.27
2019-03-06T14:50:14.259Z,8.97
2019-03-06T14:52:45.755Z,10.17
2019-03-06T14:55:16.909Z,11.13
2019-03-06T14:57:48.513Z,7.63
2019-03-06T15:00:20.128Z,9.00
2019-03-06T15:02:51.213Z,9.23
2019-03-06T15:05:22.557Z,8.50
2019-03-06T15:07:53.543Z,14.70
2019-03-06T15:10:25.722Z,10.00
2019-03-06T15:12:56.654Z,10.80
2019-03-06T15:15:28.101Z,10.17
2019-03-06T15:18:16.905Z,9.90
2019-03-06T15:20:47.552Z,12.73
2019-03-06T15:23:18.736Z,8.40
2019-03-06T15:25:49.691Z,8.37
2019-03-06T15:28:22.582Z,7.47
2019-03-06T15:30:53.958Z,6.47
2019-03-06T15:33:25.336Z,7.23
2019-03-06T15:35:57.059Z,6.73
2019-03-06T15:38:28.679Z,6.47
2019-03-06T15:40:59.722Z,5.00
2019-03-06T15:43:31.238Z,7.53
2019-03-06T15:46:01.889Z,7.00
2019-03-06T15:48:35.744Z,6.73
2019-03-06T15:51:07.464Z,7.50
2019-03-06T15:53:38.380Z,13.70
2019-03-06T15:56:09.754Z,10.60
2019-03-06T15:58:41.708Z,9.27
2019-03-06T16:01:12.345Z,7.23
2019-03-06T16:03:44.271Z,8.70
2019-03-06T16:06:20.289Z,6.73
2019-03-06T16:08:49.021Z,6.00
2019-03-06T16:11:23.610Z,7.20
2019-03-06T16:13:55.128Z,7.97
2019-03-06T16:16:25.851Z,11.07
2019-03-06T16:18:57.326Z,6.53
2019-03-06T16:21:28.389Z,7.47
2019-03-06T16:24:03.275Z,5.83
2019-03-06T16:26:34.294Z,7.80
2019-03-06T16:29:05.534Z,7.97
2019-03-06T16:31:38.757Z,6.70
2019-03-06T16:34:09.905Z,8.10
2019-03-06T16:36:44.611Z,9.00
2019-03-06T16:39:18.590Z,10.20
2019-03-06T16:41:50.330Z,9.63
2019-03-06T16:44:20.946Z,12.13
2019-03-06T16:46:52.229Z,16.93
2019-03-06T16:49:22.908Z,13.37
2019-03-06T16:52:16.784Z,13.10
2019-03-06T16:54:47.848Z,12.20
2019-03-06T16:57:19.057Z,9.43
2019-03-06T16:59:50.418Z,14.40
2019-03-06T17:02:22.026Z,8.43
2019-03-06T17:04:53.426Z,9.00
2019-03-06T17:07:26.707Z,8.47
2019-03-06T17:09:58.499Z,22.63
2019-03-06T17:12:29.592Z,7.60
2019-03-06T17:15:01.058Z,9.07
2019-03-06T17:17:33.128Z,7.00
2019-03-06T17:20:03.830Z,7.47
2019-03-06T17:22:35.094Z,6.37
2019-03-06T17:25:09.705Z,8.13
2019-03-06T17:27:58.993Z,7.37
2019-03-06T17:30:32.101Z,6.30
2019-03-06T17:33:10.490Z,6.47
2019-03-06T17:35:49.616Z,6.13
2019-03-06T17:38:20.988Z,7.17
2019-03-06T17:40:56.460Z,13.50
2019-03-06T17:43:29.119Z,6.47
2019-03-06T17:46:00.109Z,8.47
2019-03-06T17:48:34.197Z,16.93
2019-03-06T17:51:05.181Z,7.67
2019-03-06T17:53:36.266Z,11.97
2019-03-06T17:56:07.032Z,8.80
2019-03-06T17:58:37.697Z,7.17
2019-03-06T18:01:18.073Z,9.50
2019-03-06T18:04:14.792Z,7.90
2019-03-06T18:06:45.663Z,9.50
2019-03-06T18:09:17.194Z,6.80
2019-03-06T18:11:48.214Z,9.20
2019-03-06T18:14:21.547Z,8.70
2019-03-06T18:16:52.863Z,7.27
2019-03-06T18:19:23.901Z,7.10
2019-03-06T18:21:55.457Z,9.57
2019-03-06T18:24:28.417Z,8.67
2019-03-06T18:27:00.509Z,5.90
2019-03-06T18:29:32.785Z,5.83
2019-03-06T18:32:03.901Z,7.43
2019-03-06T18:34:34.856Z,6.37
2019-03-06T18:37:06.571Z,7.10
2019-03-06T18:39:37.907Z,6.00
2019-03-06T18:42:08.563Z,6.83
2019-03-06T18:44:39.931Z,5.70
2019-03-06T18:47:10.547Z,5.87
2019-03-06T18:49:42.058Z,6.63
2019-03-06T18:52:15.331Z,6.53
2019-03-06T18:54:48.537Z,5.17
2019-03-06T18:57:20.666Z,7.83
2019-03-06T18:59:53.094Z,4.33
2019-03-06T19:02:24.593Z,6.67
2019-03-06T19:04:58.880Z,6.80
2019-03-06T19:07:30.298Z,6.80
2019-03-06T19:10:01.304Z,6.60
2019-03-06T19:12:36.273Z,9.60
2019-03-06T19:15:09.078Z,5.37
2019-03-06T19:17:41.125Z,9.03
2019-03-06T19:20:14.925Z,6.20
2019-03-06T19:22:48.919Z,9.80
2019-03-06T19:25:20.831Z,9.80
2019-03-06T19:27:53.884Z,9.27
2019-03-06T19:30:24.576Z,6.10
2019-03-06T19:32:56.753Z,9.13
2019-03-06T19:35:39.078Z,4.83
2019-03-06T19:38:10.547Z,7.70
2019-03-06T19:40:42.177Z,6.03
2019-03-06T19:43:13.187Z,6.93
2019-03-06T19:45:44.165Z,7.50
2019-03-06T19:48:18.803Z,12.47
2019-03-06T19:50:51.608Z,7.63
2019-03-06T19:53:22.562Z,9.03
2019-03-06T19:55:54.208Z,9.20
2019-03-06T19:58:29.923Z,8.87
2019-03-06T20:01:02.687Z,10.80
2019-03-06T20:03:35.939Z,9.37
2019-03-06T20:06:17.050Z,9.93
2019-03-06T20:08:49.671Z,8.27
2019-03-06T20:11:22.086Z,7.37
2019-03-06T20:14:17.874Z,8.20
2019-03-06T20:16:48.774Z,9.87
2019-03-06T20:19:22.702Z,9.07
2019-03-06T20:21:54.048Z,8.93
2019-03-06T20:24:25.910Z,9.37
2019-03-06T20:26:57.032Z,6.53
2019-03-06T20:29:28.947Z,9.90
2019-03-06T20:32:00.411Z,7.10
2019-03-06T20:34:32.407Z,7.77
2019-03-06T20:37:06.233Z,7.70
2019-03-06T20:39:46.221Z,6.17
2019-03-06T20:42:17.547Z,6.13
2019-03-06T20:44:49.444Z,9.53
2019-03-06T20:47:23.610Z,13.70
2019-03-06T20:49:57.874Z,6.83
2019-03-06T20:52:30.334Z,8.77
2019-03-06T20:55:05.749Z,7.00
2019-03-06T20:57:40.427Z,6.70
2019-03-06T21:00:24.799Z,8.10
2019-03-06T21:02:59.755Z,7.70
2019-03-06T21:05:31.453Z,7.40
2019-03-06T21:08:05.273Z,7.97
2019-03-06T21:10:38.335Z,4.80
2019-03-06T21:13:09.352Z,8.20
2019-03-06T21:15:42.328Z,6.00
2019-03-06T21:18:14.428Z,10.40
2019-03-06T21:20:49.486Z,7.80
2019-03-06T21:23:21.920Z,11.93
2019-03-06T21:25:52.953Z,7.93
2019-03-06T21:28:30.860Z,7.37
2019-03-06T21:31:01.939Z,9.63
2019-03-06T21:33:32.691Z,7.33
2019-03-06T21:36:04.266Z,7.33
2019-03-06T21:38:38.245Z,10.70
2019-03-06T21:41:33.490Z,12.63
2019-03-06T21:44:09.851Z,11.60
2019-03-06T21:46:52.634Z,11.17
2019-03-06T21:49:27.108Z,14.80
2019-03-06T21:52:03.766Z,12.30
2019-03-06T21:54:41.591Z,13.57
2019-03-06T21:57:12.651Z,10.80
2019-03-06T21:59:46.212Z,13.93
2019-03-06T22:02:16.879Z,16.00
2019-03-06T22:04:49.962Z,16.70
2019-03-06T22:07:24.214Z,6.30
2019-03-06T22:09:57.091Z,6.63
2019-03-06T22:12:28.516Z,7.27
2019-03-06T22:14:59.377Z,5.90
2019-03-06T22:17:41.954Z,10.53
2019-03-06T22:20:14.020Z,22.90
2019-03-06T22:22:46.877Z,18.20
2019-03-06T22:25:18.054Z,9.03
2019-03-06T22:27:49.554Z,9.67
2019-03-06T22:30:22.405Z,9.23
2019-03-06T22:32:53.559Z,9.20
2019-03-06T22:35:23.931Z,8.03
2019-03-06T22:37:57.265Z,5.67
2019-03-06T22:40:28.326Z,11.83
2019-03-06T22:43:00.106Z,8.20
2019-03-06T22:45:31.387Z,8.03
2019-03-06T22:48:04.153Z,6.43
2019-03-06T22:50:36.810Z,8.83
2019-03-06T22:53:08.847Z,10.73
2019-03-06T22:55:42.076Z,5.33
2019-03-06T22:58:13.406Z,6.53
2019-03-06T23:00:59.252Z,5.93
2019-03-06T23:03:31.855Z,8.70
2019-03-06T23:06:02.844Z,6.80
2019-03-06T23:08:34.443Z,16.23
2019-03-06T23:11:06.061Z,9.53
2019-03-06T23:13:45.740Z,6.73
2019-03-06T23:16:16.831Z,12.10
2019-03-06T23:18:50.677Z,8.47
2019-03-06T23:21:21.681Z,8.17
2019-03-06T23:23:53.042Z,7.87
2019-03-06T23:26:24.459Z,5.60
2019-03-06T23:28:55.184Z,6.87
2019-03-06T23:31:26.502Z,13.37
2019-03-06T23:33:58.078Z,7.37
2019-03-06T23:36:32.322Z,6.63
2019-03-06T23:39:03.499Z,5.30
2019-03-06T23:41:41.410Z,6.87
2019-03-06T23:44:35.534Z,8.27
2019-03-06T23:47:28.498Z,6.17
2019-03-06T23:50:01.394Z,6.13
2019-03-06T23:52:56.527Z,7.57
2019-03-06T23:55:29.890Z,3.60
2019-03-06T23:58:10.259Z,7.47
